createdAt,value
2023-04-28T00:00:30.776Z,100147.78
2023-04-28T00:02:03.048Z,100144.38
2023-04-28T00:03:35.410Z,100147.84
2023-04-28T00:05:07.931Z,100149.63
2023-04-28T00:06:41.410Z,100148.00
2023-04-28T00:08:13.449Z,100160.88
2023-04-28T00:09:45.439Z,100161.78
2023-04-28T00:11:17.460Z,100156.66
2023-04-28T00:12:49.550Z,100156.75
2023-04-28T00:14:21.717Z,100164.59
2023-04-28T00:15:54.366Z,100162.06
2023-04-28T00:17:26.612Z,100168.22
2023-04-28T00:18:58.891Z,100176.03
2023-04-28T00:20:31.009Z,100170.94
2023-04-28T00:22:03.013Z,100177.06
2023-04-28T00:23:35.740Z,100183.16
2023-04-28T00:25:09.404Z,100181.53
2023-04-28T00:26:41.642Z,100177.31
2023-04-28T00:28:18.389Z,100181.66
2023-04-28T00:29:59.133Z,100188.59
2023-04-28T00:33:04.047Z,100193.84
2023-04-28T00:34:39.212Z,100190.41
2023-04-28T00:36:12.048Z,100195.63
2023-04-28T00:37:44.188Z,100201.69
2023-04-28T00:39:17.119Z,100198.25
2023-04-28T00:40:49.169Z,100201.72
2023-04-28T00:42:21.186Z,100202.56
2023-04-28T00:43:53.343Z,100208.63
2023-04-28T00:45:25.506Z,100206.88
2023-04-28T00:46:59.661Z,100206.88
2023-04-28T00:48:31.928Z,100200.84
2023-04-28T00:50:07.346Z,100199.94
2023-04-28T00:51:39.428Z,100199.94
2023-04-28T00:53:12.518Z,100201.63
2023-04-28T00:54:44.814Z,100194.69
2023-04-28T00:56:17.464Z,100193.81
2023-04-28T00:57:49.542Z,100192.03
2023-04-28T00:59:21.593Z,100195.44
2023-04-28T01:00:53.649Z,100204.91
2023-04-28T01:02:26.345Z,100208.28
2023-04-28T01:03:58.765Z,100206.59
2023-04-28T01:05:31.394Z,100202.31
2023-04-28T01:07:04.429Z,100209.25
2023-04-28T01:08:37.455Z,100212.78
2023-04-28T01:10:10.187Z,100207.69
2023-04-28T01:11:42.465Z,100197.44
2023-04-28T01:13:14.479Z,100210.34
2023-04-28T01:14:47.021Z,100208.69
2023-04-28T01:16:19.214Z,100204.44
2023-04-28T01:17:51.941Z,100202.72
2023-04-28T01:19:24.139Z,100207.97
2023-04-28T01:20:56.645Z,100208.84
2023-04-28T01:22:28.740Z,100210.63
2023-04-28T01:24:01.924Z,100205.47
2023-04-28T01:25:33.999Z,100207.25
2023-04-28T01:27:06.505Z,100205.53
2023-04-28T01:28:38.571Z,100215.00
2023-04-28T01:30:12.976Z,100214.16
2023-04-28T01:31:45.104Z,100220.19
2023-04-28T01:33:17.262Z,100219.34
2023-04-28T01:34:49.464Z,100216.78
2023-04-28T01:36:23.024Z,100214.22
2023-04-28T01:37:55.084Z,100211.66
2023-04-28T01:39:27.150Z,100217.66
2023-04-28T01:41:00.049Z,100215.94
2023-04-28T01:42:32.185Z,100217.66
2023-04-28T01:44:05.410Z,100215.94
2023-04-28T01:45:37.381Z,100210.75
2023-04-28T01:47:09.799Z,100209.06
2023-04-28T01:48:41.858Z,100210.75
2023-04-28T01:50:14.086Z,100215.06
2023-04-28T01:51:46.187Z,100212.47
2023-04-28T01:53:21.030Z,100214.16
2023-04-28T01:54:53.143Z,100213.28
2023-04-28T01:56:25.269Z,100208.97
2023-04-28T01:57:58.810Z,100215.78
2023-04-28T01:59:31.422Z,100212.34
2023-04-28T02:01:03.595Z,100211.50
2023-04-28T02:02:35.965Z,100208.06
2023-04-28T02:04:08.093Z,100203.69
2023-04-28T02:05:40.192Z,100203.69
2023-04-28T02:07:12.318Z,100205.38
2023-04-28T02:08:44.348Z,100204.47
2023-04-28T02:10:16.527Z,100206.97
2023-04-28T02:11:48.986Z,100216.38
2023-04-28T02:13:21.045Z,100210.31
2023-04-28T02:14:53.097Z,100212.81
2023-04-28T02:16:25.316Z,100211.94
2023-04-28T02:17:57.662Z,100222.22
2023-04-28T02:19:32.868Z,100211.03
2023-04-28T02:21:12.093Z,100214.41
2023-04-28T02:22:44.106Z,100213.47
2023-04-28T02:24:16.643Z,100210.88
2023-04-28T02:25:48.928Z,100209.13
2023-04-28T02:27:21.837Z,100217.69
2023-04-28T02:28:54.040Z,100216.81
2023-04-28T02:30:26.122Z,100223.63
2023-04-28T02:31:58.189Z,100226.19
2023-04-28T02:33:30.266Z,100231.31
2023-04-28T02:35:02.506Z,100222.75
2023-04-28T02:36:34.562Z,100218.34
2023-04-28T02:38:06.658Z,100223.47
2023-04-28T02:39:38.650Z,100224.31
2023-04-28T02:41:11.079Z,100226.84
2023-04-28T02:42:43.549Z,100233.69
2023-04-28T02:44:15.879Z,100231.09
2023-04-28T02:45:48.065Z,100232.78
2023-04-28T02:47:20.118Z,100237.03
2023-04-28T02:48:52.254Z,100235.34
2023-04-28T02:50:24.420Z,100237.91
2023-04-28T02:51:56.661Z,100243.00
2023-04-28T02:53:29.087Z,100241.34
2023-04-28T02:55:01.229Z,100248.19
2023-04-28T02:56:34.029Z,100243.91
2023-04-28T02:58:06.472Z,100251.63
2023-04-28T02:59:38.584Z,100261.00
2023-04-28T03:01:10.735Z,100257.63
2023-04-28T03:02:42.908Z,100259.34
2023-04-28T03:04:16.180Z,100266.25
2023-04-28T03:05:48.421Z,100267.09
2023-04-28T03:07:20.568Z,100266.97
2023-04-28T03:08:52.650Z,100279.75
2023-04-28T03:10:24.891Z,100277.97
2023-04-28T03:11:57.017Z,100284.75
2023-04-28T03:13:30.471Z,100283.84
2023-04-28T03:15:02.485Z,100273.63
2023-04-28T03:16:34.787Z,100287.28
2023-04-28T03:18:07.006Z,100289.84
2023-04-28T03:19:39.229Z,100286.47
2023-04-28T03:21:11.489Z,100294.16
2023-04-28T03:22:43.556Z,100290.69
2023-04-28T03:24:15.906Z,100293.22
2023-04-28T03:25:48.196Z,100289.78
2023-04-28T03:27:20.417Z,100295.72
2023-04-28T03:28:52.650Z,100297.47
2023-04-28T03:30:24.811Z,100303.47
2023-04-28T03:31:57.479Z,100306.88
2023-04-28T03:33:29.951Z,100307.63
2023-04-28T03:35:02.363Z,100303.28
2023-04-28T03:36:34.431Z,100310.09
2023-04-28T03:38:07.370Z,100323.75
2023-04-28T03:39:39.511Z,100314.28
2023-04-28T03:41:11.807Z,100322.78
2023-04-28T03:42:43.992Z,100321.16
2023-04-28T03:44:16.228Z,100319.44
2023-04-28T03:45:49.895Z,100329.72
2023-04-28T03:47:22.281Z,100334.03
2023-04-28T03:48:54.496Z,100336.56
2023-04-28T03:50:26.840Z,100332.31
2023-04-28T03:51:59.000Z,100336.63
2023-04-28T03:53:31.065Z,100339.22
2023-04-28T03:55:03.194Z,100343.59
2023-04-28T03:56:35.384Z,100348.75
2023-04-28T03:58:07.500Z,100353.91
2023-04-28T03:59:40.139Z,100352.16
2023-04-28T04:01:12.633Z,100353.84
2023-04-28T04:02:45.005Z,100366.69
2023-04-28T04:04:17.970Z,100366.69
2023-04-28T04:05:50.637Z,100359.81
2023-04-28T04:07:23.559Z,100370.09
2023-04-28T04:08:55.970Z,100367.50
2023-04-28T04:10:28.270Z,100365.75
2023-04-28T04:12:01.626Z,100365.75
2023-04-28T04:13:33.770Z,100366.56
2023-04-28T04:15:06.705Z,100368.31
2023-04-28T04:16:39.560Z,100369.16
2023-04-28T04:18:11.761Z,100372.63
2023-04-28T04:19:43.817Z,100370.97
2023-04-28T04:21:16.038Z,100371.84
2023-04-28T04:22:48.355Z,100375.31
2023-04-28T04:24:20.441Z,100376.19
2023-04-28T04:25:52.566Z,100382.28
2023-04-28T04:27:24.822Z,100375.50
2023-04-28T04:28:57.199Z,100385.06
2023-04-28T04:30:29.358Z,100388.63
2023-04-28T04:32:01.411Z,100381.88
2023-04-28T04:33:35.036Z,100382.84
2023-04-28T04:35:07.492Z,100379.53
2023-04-28T04:36:39.629Z,100381.31
2023-04-28T04:38:11.813Z,100391.66
2023-04-28T04:39:43.962Z,100390.03
2023-04-28T04:41:16.252Z,100379.81
2023-04-28T04:42:48.368Z,100387.59
2023-04-28T04:44:20.495Z,100387.66
2023-04-28T04:45:52.579Z,100387.72
2023-04-28T04:47:24.954Z,100391.19
2023-04-28T04:48:57.334Z,100392.97
2023-04-28T04:50:29.390Z,100391.31
2023-04-28T04:52:02.176Z,100389.63
2023-04-28T04:53:34.398Z,100393.97
2023-04-28T04:55:07.284Z,100394.03
2023-04-28T04:56:39.495Z,100397.50
2023-04-28T04:58:11.997Z,100390.75
2023-04-28T04:59:44.102Z,100397.63
2023-04-28T05:01:16.268Z,100390.81
2023-04-28T05:02:51.573Z,100395.16
2023-04-28T05:04:24.235Z,100392.63
2023-04-28T05:05:56.472Z,100400.38
2023-04-28T05:07:28.575Z,100397.00
2023-04-28T05:09:00.770Z,100395.31
2023-04-28T05:10:33.207Z,100397.03
2023-04-28T05:12:06.066Z,100394.50
2023-04-28T05:13:38.167Z,100392.81
2023-04-28T05:15:10.709Z,100395.41
2023-04-28T05:16:42.988Z,100404.03
2023-04-28T05:18:15.411Z,100401.47
2023-04-28T05:19:47.464Z,100396.38
2023-04-28T05:21:19.577Z,100393.78
2023-04-28T05:22:51.804Z,100397.25
2023-04-28T05:24:24.375Z,100395.56
2023-04-28T05:25:56.602Z,100386.09
2023-04-28T05:27:28.891Z,100385.25
2023-04-28T05:29:01.011Z,100387.84
2023-04-28T05:30:33.765Z,100390.44
2023-04-28T05:32:06.458Z,100393.00
2023-04-28T05:33:38.624Z,100395.56
2023-04-28T05:35:11.003Z,100398.13
2023-04-28T05:36:43.609Z,100394.66
2023-04-28T05:38:15.775Z,100402.41
2023-04-28T05:39:47.953Z,100399.81
2023-04-28T05:41:20.137Z,100396.38
2023-04-28T05:42:52.264Z,100401.50
2023-04-28T05:44:24.621Z,100401.50
2023-04-28T05:45:56.992Z,100398.91
2023-04-28T05:47:30.743Z,100394.59
2023-04-28T05:49:02.983Z,100399.69
2023-04-28T05:50:36.058Z,100408.28
2023-04-28T05:52:09.159Z,100395.34
2023-04-28T05:53:41.521Z,100402.22
2023-04-28T05:55:16.355Z,100405.66
2023-04-28T05:56:48.521Z,100409.91
2023-04-28T05:58:20.638Z,100405.56
2023-04-28T05:59:52.834Z,100408.13
2023-04-28T06:01:28.567Z,100403.81
2023-04-28T06:03:01.216Z,100413.25
2023-04-28T06:04:33.763Z,100414.94
2023-04-28T06:06:09.781Z,100414.94
2023-04-28T06:07:42.415Z,100409.78
2023-04-28T06:09:14.747Z,100403.69
2023-04-28T06:10:47.246Z,100401.03
2023-04-28T06:12:19.903Z,100402.69
2023-04-28T06:13:52.203Z,100404.34
2023-04-28T06:15:24.489Z,100412.06
2023-04-28T06:16:56.710Z,100399.94
2023-04-28T06:18:32.980Z,100401.56
2023-04-28T06:20:06.415Z,100401.50
2023-04-28T06:21:38.591Z,100410.91
2023-04-28T06:23:10.746Z,100399.69
2023-04-28T06:24:43.330Z,100405.69
2023-04-28T06:26:17.987Z,100405.59
2023-04-28T06:27:50.443Z,100402.94
2023-04-28T06:29:24.450Z,100396.84
2023-04-28T06:30:56.556Z,100401.13
2023-04-28T06:32:28.911Z,100402.78
2023-04-28T06:34:01.122Z,100404.41
2023-04-28T06:35:36.109Z,100408.66
2023-04-28T06:37:08.280Z,100405.09
2023-04-28T06:38:43.260Z,100404.19
2023-04-28T06:40:15.482Z,100401.53
2023-04-28T06:41:47.880Z,100405.78
2023-04-28T06:43:20.456Z,100399.63
2023-04-28T06:44:52.630Z,100402.13
2023-04-28T06:46:24.990Z,100399.47
2023-04-28T06:47:57.337Z,100393.38
2023-04-28T06:49:29.550Z,100393.28
2023-04-28T06:51:01.775Z,100392.28
2023-04-28T06:52:39.177Z,100389.50
2023-04-28T06:54:11.998Z,100397.97
2023-04-28T06:55:44.199Z,100398.72
2023-04-28T06:57:16.316Z,100402.06
2023-04-28T06:58:51.219Z,100404.63
2023-04-28T07:01:57.701Z,100413.97
2023-04-28T07:03:29.979Z,100396.53
2023-04-28T07:05:02.168Z,100405.25
2023-04-28T07:06:34.286Z,100405.28
2023-04-28T07:08:06.897Z,100402.78
2023-04-28T07:09:39.691Z,100406.19
2023-04-28T07:11:12.031Z,100399.28
2023-04-28T07:12:44.213Z,100397.56
2023-04-28T07:14:16.653Z,100397.56
2023-04-28T07:15:48.960Z,100405.31
2023-04-28T07:17:21.044Z,100402.59
2023-04-28T07:18:53.175Z,100400.78
2023-04-28T07:20:25.423Z,100404.94
2023-04-28T07:21:57.666Z,100394.44
2023-04-28T07:23:29.878Z,100400.34
2023-04-28T07:25:02.029Z,100397.56
2023-04-28T07:26:34.348Z,100402.72
2023-04-28T07:28:06.822Z,100402.94
2023-04-28T07:29:38.973Z,100393.38
2023-04-28T07:31:11.114Z,100397.63
2023-04-28T07:32:44.354Z,100393.97
2023-04-28T07:34:16.784Z,100396.47
2023-04-28T07:35:49.895Z,100394.69
2023-04-28T07:37:22.016Z,100393.66
2023-04-28T07:38:54.265Z,100396.13
2023-04-28T07:40:26.364Z,100396.03
2023-04-28T07:41:59.466Z,100393.28
2023-04-28T07:43:31.666Z,100391.50
2023-04-28T07:45:06.035Z,100392.22
2023-04-28T07:46:38.507Z,100389.63
2023-04-28T07:48:10.767Z,100393.91
2023-04-28T07:49:42.872Z,100399.06
2023-04-28T07:51:14.996Z,100396.38
2023-04-28T07:52:47.157Z,100392.16
2023-04-28T07:54:19.698Z,100388.66
2023-04-28T07:55:52.142Z,100387.00
2023-04-28T07:57:24.286Z,100386.81
2023-04-28T07:58:56.558Z,100384.91
2023-04-28T08:00:28.893Z,100397.09
2023-04-28T08:02:01.086Z,100384.81
2023-04-28T08:03:33.636Z,100384.84
2023-04-28T08:06:38.971Z,100378.75
2023-04-28T08:08:11.160Z,100382.00
2023-04-28T08:09:47.578Z,100370.66
2023-04-28T08:11:19.829Z,100373.25
2023-04-28T08:12:53.234Z,100365.28
2023-04-28T08:14:25.431Z,100378.94
2023-04-28T08:15:57.700Z,100372.16
2023-04-28T08:17:29.833Z,100368.50
2023-04-28T08:19:02.206Z,100362.44
2023-04-28T08:20:34.458Z,100373.66
2023-04-28T08:22:07.614Z,100362.28
2023-04-28T08:23:39.785Z,100367.41
2023-04-28T08:25:11.975Z,100367.38
2023-04-28T08:26:44.483Z,100363.06
2023-04-28T08:28:16.957Z,100369.09
2023-04-28T08:29:49.025Z,100366.50
2023-04-28T08:31:21.177Z,100363.00
2023-04-28T08:32:53.544Z,100360.31
2023-04-28T08:34:25.717Z,100361.94
2023-04-28T08:35:57.913Z,100356.56
2023-04-28T08:37:30.178Z,100354.69
2023-04-28T08:39:04.566Z,100358.91
2023-04-28T08:40:37.877Z,100355.34
2023-04-28T08:42:10.203Z,100340.47
2023-04-28T08:43:43.653Z,100348.97
2023-04-28T08:45:16.191Z,100348.88
2023-04-28T08:46:50.416Z,100348.84
2023-04-28T08:48:23.125Z,100342.81
2023-04-28T08:49:56.490Z,100343.66
2023-04-28T08:51:33.811Z,100338.13
2023-04-28T08:53:07.666Z,100342.28
2023-04-28T08:54:43.520Z,100340.44
2023-04-28T08:56:17.273Z,100344.75
2023-04-28T08:57:52.656Z,100339.53
2023-04-28T08:59:25.164Z,100342.19
2023-04-28T09:00:57.342Z,100342.19
2023-04-28T09:02:29.547Z,100337.72
2023-04-28T09:05:34.881Z,100341.88
2023-04-28T09:07:13.530Z,100336.34
2023-04-28T09:08:45.739Z,100338.25
2023-04-28T09:10:25.128Z,100332.84
2023-04-28T09:12:05.286Z,100327.03
2023-04-28T09:13:38.050Z,100326.91
2023-04-28T09:15:10.798Z,100319.72
2023-04-28T09:16:42.952Z,100324.09
2023-04-28T09:18:16.011Z,100327.50
2023-04-28T09:19:48.411Z,100320.47
2023-04-28T09:21:20.670Z,100324.59
2023-04-28T09:22:54.390Z,100317.41
2023-04-28T09:24:37.224Z,100317.06
2023-04-28T09:26:09.375Z,100311.13
2023-04-28T09:27:41.577Z,100320.06
2023-04-28T09:29:14.318Z,100320.50
2023-04-28T09:30:46.477Z,100325.69
2023-04-28T09:32:21.297Z,100318.66
2023-04-28T09:34:00.589Z,100308.94
2023-04-28T09:35:43.395Z,100313.06
2023-04-28T09:37:23.215Z,100312.00
2023-04-28T09:38:58.501Z,100303.25
2023-04-28T09:40:30.780Z,100308.25
2023-04-28T09:42:04.116Z,100312.56
2023-04-28T09:43:36.527Z,100302.81
2023-04-28T09:45:16.396Z,100303.34
2023-04-28T09:46:49.010Z,100299.88
2023-04-28T09:48:31.759Z,100305.28
2023-04-28T09:50:09.004Z,100292.38
2023-04-28T09:51:41.549Z,100296.84
2023-04-28T09:53:13.923Z,100294.06
2023-04-28T09:54:46.287Z,100295.91
2023-04-28T09:56:21.385Z,100291.25
2023-04-28T09:57:55.227Z,100292.66
2023-04-28T09:59:28.219Z,100296.88
2023-04-28T10:01:01.490Z,100293.09
2023-04-28T10:04:12.606Z,100288.56
2023-04-28T10:05:45.727Z,100291.16
2023-04-28T10:07:20.225Z,100287.31
2023-04-28T10:08:52.580Z,100276.75
2023-04-28T10:10:25.623Z,100297.00
2023-04-28T10:11:57.859Z,100287.22
2023-04-28T10:13:30.429Z,100286.59
2023-04-28T10:15:02.658Z,100288.91
2023-04-28T10:16:35.173Z,100287.09
2023-04-28T10:18:08.154Z,100274.13
2023-04-28T10:19:42.068Z,100278.25
2023-04-28T10:21:18.958Z,100278.25
2023-04-28T10:23:25.324Z,100281.69
2023-04-28T10:25:12.490Z,100280.28
2023-04-28T10:27:03.765Z,100285.44
2023-04-28T10:28:36.050Z,100275.78
2023-04-28T10:32:22.297Z,100281.50
2023-04-28T10:33:55.165Z,100279.53
2023-04-28T10:35:37.955Z,100274.19
2023-04-28T10:37:10.165Z,100274.78
2023-04-28T10:39:14.680Z,100274.25
2023-04-28T10:40:47.960Z,100270.50
2023-04-28T10:44:31.523Z,100268.88
2023-04-28T10:46:06.661Z,100269.66
2023-04-28T10:48:06.666Z,100269.66
2023-04-28T10:49:57.957Z,100261.50
2023-04-28T10:51:30.724Z,100259.63
2023-04-28T10:53:02.917Z,100254.88
2023-04-28T10:54:35.093Z,100252.06
2023-04-28T10:56:07.591Z,100251.03
2023-04-28T10:57:39.741Z,100242.47
2023-04-28T10:59:30.653Z,100245.59
2023-04-28T11:01:21.128Z,100244.56
2023-04-28T11:02:53.753Z,100248.94
2023-04-28T11:04:26.377Z,100244.72
2023-04-28T11:06:27.784Z,100236.38
2023-04-28T11:08:25.991Z,100240.53
2023-04-28T11:09:58.252Z,100241.66
2023-04-28T11:11:31.728Z,100238.97
2023-04-28T11:13:26.434Z,100232.78
2023-04-28T11:15:12.430Z,100228.28
2023-04-28T11:16:55.179Z,100223.53
2023-04-28T11:18:29.101Z,100233.56
2023-04-28T11:20:02.714Z,100227.97
2023-04-28T11:21:34.918Z,100230.22
2023-04-28T11:23:08.499Z,100229.72
2023-04-28T11:24:40.674Z,100230.22
2023-04-28T11:26:15.823Z,100221.22
2023-04-28T11:27:50.944Z,100228.88
2023-04-28T11:29:36.767Z,100215.22
2023-04-28T11:31:19.776Z,100219.81
2023-04-28T11:32:52.186Z,100211.34
2023-04-28T11:34:25.492Z,100217.22
2023-04-28T11:35:57.559Z,100206.63
2023-04-28T11:37:29.692Z,100212.19
2023-04-28T11:39:05.430Z,100204.09
2023-04-28T11:40:37.633Z,100198.69
2023-04-28T11:42:10.841Z,100201.75
2023-04-28T11:43:47.391Z,100204.22
2023-04-28T11:45:20.102Z,100200.88
2023-04-28T11:46:57.634Z,100191.84
2023-04-28T11:48:29.714Z,100194.09
2023-04-28T11:50:02.410Z,100196.22
2023-04-28T11:51:37.308Z,100185.16
2023-04-28T11:53:09.535Z,100188.63
2023-04-28T11:54:44.632Z,100188.75
2023-04-28T11:56:16.752Z,100181.56
2023-04-28T11:57:49.007Z,100195.50
2023-04-28T11:59:29.686Z,100194.09
2023-04-28T12:01:11.861Z,100185.41
2023-04-28T12:02:44.273Z,100189.63
2023-04-28T12:04:38.317Z,100184.50
2023-04-28T12:06:10.609Z,100175.22
2023-04-28T12:07:46.065Z,100186.00
2023-04-28T12:09:21.829Z,100177.03
2023-04-28T12:11:14.302Z,100174.63
2023-04-28T12:12:52.505Z,100168.53
2023-04-28T12:14:26.047Z,100177.09
2023-04-28T12:16:03.122Z,100168.53
2023-04-28T12:17:40.487Z,100165.84
2023-04-28T12:19:13.264Z,100171.00
2023-04-28T12:20:45.537Z,100163.63
2023-04-28T12:22:18.311Z,100163.50
2023-04-28T12:23:50.986Z,100163.81
2023-04-28T12:25:23.073Z,100160.03
2023-04-28T12:26:55.561Z,100158.25
2023-04-28T12:28:41.376Z,100158.13
2023-04-28T12:30:23.253Z,100158.19
2023-04-28T12:31:55.553Z,100152.75
2023-04-28T12:33:29.390Z,100143.78
2023-04-28T12:35:01.453Z,100150.16
2023-04-28T12:36:33.605Z,100146.28
2023-04-28T12:38:05.715Z,100151.97
2023-04-28T12:39:39.765Z,100151.38
2023-04-28T12:41:12.210Z,100136.91
2023-04-28T12:42:44.492Z,100132.09
2023-04-28T12:44:16.663Z,100131.75
2023-04-28T12:45:49.536Z,100143.31
2023-04-28T12:47:21.674Z,100142.47
2023-04-28T12:48:54.212Z,100136.59
2023-04-28T12:50:28.368Z,100139.59
2023-04-28T12:52:00.514Z,100131.06
2023-04-28T12:53:32.795Z,100133.03
2023-04-28T12:55:05.465Z,100124.06
2023-04-28T12:56:37.647Z,100121.91
2023-04-28T12:58:09.765Z,100131.72
2023-04-28T12:59:42.424Z,100133.16
2023-04-28T13:01:16.410Z,100132.00
2023-04-28T13:02:48.662Z,100131.88
2023-04-28T13:04:21.167Z,100133.78
2023-04-28T13:05:53.452Z,100134.41
2023-04-28T13:07:25.588Z,100131.41
2023-04-28T13:08:57.679Z,100126.91
2023-04-28T13:10:30.294Z,100127.84
2023-04-28T13:12:07.288Z,100125.72
2023-04-28T13:13:39.480Z,100121.22
2023-04-28T13:15:12.283Z,100126.94
2023-04-28T13:16:44.478Z,100124.50
2023-04-28T13:18:16.674Z,100120.38
2023-04-28T13:19:49.253Z,100115.38
2023-04-28T13:21:21.318Z,100111.31
2023-04-28T13:22:53.466Z,100105.97
2023-04-28T13:24:25.517Z,100107.91
2023-04-28T13:25:57.600Z,100107.91
2023-04-28T13:27:31.051Z,100105.63
2023-04-28T13:29:04.456Z,100106.38
2023-04-28T13:30:36.474Z,100100.66
2023-04-28T13:32:09.062Z,100106.63
2023-04-28T13:33:41.545Z,100106.03
2023-04-28T13:35:13.898Z,100099.13
2023-04-28T13:36:46.193Z,100109.13
2023-04-28T13:38:19.411Z,100107.91
2023-04-28T13:39:51.628Z,100100.78
2023-04-28T13:41:23.764Z,100099.84
2023-04-28T13:42:58.381Z,100100.94
2023-04-28T13:44:30.596Z,100101.22
2023-04-28T13:47:34.911Z,100089.25
2023-04-28T13:49:07.176Z,100101.72
2023-04-28T13:50:39.659Z,100095.00
2023-04-28T13:52:12.015Z,100089.25
2023-04-28T13:53:44.288Z,100096.25
2023-04-28T13:55:16.681Z,100097.94
2023-04-28T13:56:49.137Z,100098.25
2023-04-28T13:58:21.286Z,100095.44
2023-04-28T13:59:53.657Z,100093.31
2023-04-28T14:01:25.879Z,100098.72
2023-04-28T14:02:58.255Z,100093.31
2023-04-28T14:04:30.894Z,100097.56
2023-04-28T14:06:03.478Z,100090.66
2023-04-28T14:07:35.830Z,100088.09
2023-04-28T14:09:08.500Z,100092.47
2023-04-28T14:10:40.652Z,100099.00
2023-04-28T14:12:14.253Z,100087.94
2023-04-28T14:13:46.417Z,100087.78
2023-04-28T14:15:18.538Z,100083.84
2023-04-28T14:16:50.794Z,100085.97
2023-04-28T14:18:23.000Z,100083.84
2023-04-28T14:19:55.171Z,100085.84
2023-04-28T14:21:27.297Z,100083.13
2023-04-28T14:22:59.958Z,100080.09
2023-04-28T14:24:32.321Z,100084.06
2023-04-28T14:26:04.704Z,100083.63
2023-04-28T14:27:36.974Z,100081.94
2023-04-28T14:29:09.785Z,100079.09
2023-04-28T14:30:42.160Z,100087.38
2023-04-28T14:32:16.796Z,100081.03
2023-04-28T14:33:48.904Z,100074.38
2023-04-28T14:35:21.962Z,100073.16
2023-04-28T14:36:54.055Z,100071.25
2023-04-28T14:38:26.276Z,100064.78
2023-04-28T14:39:58.720Z,100073.72
2023-04-28T14:41:30.934Z,100070.72
2023-04-28T14:43:03.070Z,100069.94
2023-04-28T14:44:35.528Z,100061.66
2023-04-28T14:46:08.430Z,100066.09
2023-04-28T14:47:41.753Z,100065.53
2023-04-28T14:49:13.792Z,100063.47
2023-04-28T14:50:46.560Z,100061.53
2023-04-28T14:52:18.781Z,100058.69
2023-04-28T14:53:51.338Z,100052.31
2023-04-28T14:55:23.563Z,100059.72
2023-04-28T14:56:55.677Z,100059.41
2023-04-28T14:58:27.966Z,100048.72
2023-04-28T15:00:00.310Z,100061.34
2023-04-28T15:01:32.392Z,100054.91
2023-04-28T15:03:04.817Z,100055.88
2023-04-28T15:04:37.202Z,100058.56
2023-04-28T15:06:09.474Z,100052.59
2023-04-28T15:07:41.556Z,100045.53
2023-04-28T15:09:14.001Z,100056.06
2023-04-28T15:10:46.296Z,100055.34
2023-04-28T15:12:18.478Z,100060.97
2023-04-28T15:13:50.591Z,100059.53
2023-04-28T15:16:55.509Z,100053.56
2023-04-28T15:18:28.506Z,100058.66
2023-04-28T15:20:00.761Z,100055.06
2023-04-28T15:21:33.241Z,100064.50
2023-04-28T15:23:05.360Z,100060.06
2023-04-28T15:24:37.416Z,100060.84
2023-04-28T15:26:11.267Z,100056.31
2023-04-28T15:27:43.980Z,100059.28
2023-04-28T15:29:16.592Z,100055.06
2023-04-28T15:30:48.857Z,100060.44
2023-04-28T15:32:20.983Z,100055.78
2023-04-28T15:33:53.320Z,100055.66
2023-04-28T15:35:25.444Z,100051.06
2023-04-28T15:36:57.609Z,100051.06
2023-04-28T15:38:31.815Z,100053.78
2023-04-28T15:40:07.638Z,100051.66
2023-04-28T15:41:39.820Z,100053.22
2023-04-28T15:43:13.718Z,100050.81
2023-04-28T15:44:45.974Z,100044.78
2023-04-28T15:46:18.241Z,100043.84
2023-04-28T15:47:51.337Z,100040.75
2023-04-28T15:49:23.532Z,100043.50
2023-04-28T15:50:56.262Z,100037.25
2023-04-28T15:52:28.456Z,100046.13
2023-04-28T15:54:00.916Z,100041.78
2023-04-28T15:55:33.176Z,100039.06
2023-04-28T15:57:05.985Z,100031.22
2023-04-28T15:58:38.280Z,100029.94
2023-04-28T16:00:11.842Z,100028.88
2023-04-28T16:01:44.387Z,100029.66
2023-04-28T16:03:17.325Z,100027.28
2023-04-28T16:04:49.701Z,100029.00
2023-04-28T16:06:22.028Z,100034.28
2023-04-28T16:07:55.441Z,100036.09
2023-04-28T16:09:27.449Z,100037.69
2023-04-28T16:10:59.608Z,100036.16
2023-04-28T16:12:31.805Z,100026.72
2023-04-28T16:14:04.653Z,100037.19
2023-04-28T16:15:36.831Z,100033.72
2023-04-28T16:17:09.176Z,100027.59
2023-04-28T16:18:41.418Z,100031.13
2023-04-28T16:20:13.862Z,100038.91
2023-04-28T16:21:46.049Z,100035.63
2023-04-28T16:23:19.125Z,100029.69
2023-04-28T16:26:22.997Z,100034.34
2023-04-28T16:27:55.250Z,100035.56
2023-04-28T16:29:27.390Z,100037.25
2023-04-28T16:30:59.874Z,100045.03
2023-04-28T16:32:33.897Z,100039.75
2023-04-28T16:34:06.042Z,100042.38
2023-04-28T16:35:38.302Z,100043.22
2023-04-28T16:37:12.077Z,100044.28
2023-04-28T16:38:46.162Z,100050.50
2023-04-28T16:40:18.786Z,100042.78
2023-04-28T16:41:51.047Z,100045.63
2023-04-28T16:43:23.286Z,100042.31
2023-04-28T16:44:55.504Z,100048.50
2023-04-28T16:46:27.914Z,100044.34
2023-04-28T16:48:00.159Z,100055.94
2023-04-28T16:49:32.464Z,100063.88
2023-04-28T16:51:08.582Z,100070.91
2023-04-28T16:52:41.086Z,100060.47
2023-04-28T16:54:13.300Z,100060.59
2023-04-28T16:55:45.477Z,100062.41
2023-04-28T16:57:17.570Z,100060.81
2023-04-28T16:58:49.714Z,100054.97
2023-04-28T17:00:22.214Z,100059.59
2023-04-28T17:01:54.368Z,100052.66
2023-04-28T17:03:26.935Z,100067.69
2023-04-28T17:05:01.869Z,100056.56
2023-04-28T17:06:34.254Z,100057.78
2023-04-28T17:08:06.308Z,100063.38
2023-04-28T17:09:39.031Z,100062.78
2023-04-28T17:11:11.673Z,100059.63
2023-04-28T17:12:45.980Z,100064.31
2023-04-28T17:14:18.885Z,100060.38
2023-04-28T17:15:58.188Z,100065.78
2023-04-28T17:17:30.382Z,100064.47
2023-04-28T17:19:03.184Z,100064.81
2023-04-28T17:20:35.745Z,100065.19
2023-04-28T17:22:07.824Z,100061.22
2023-04-28T17:23:40.492Z,100058.19
2023-04-28T17:25:13.143Z,100059.44
2023-04-28T17:26:45.519Z,100062.44
2023-04-28T17:28:17.664Z,100069.63
2023-04-28T17:29:50.103Z,100069.97
2023-04-28T17:31:23.328Z,100067.91
2023-04-28T17:32:55.740Z,100082.78
2023-04-28T17:34:27.877Z,100080.63
2023-04-28T17:36:00.003Z,100082.66
2023-04-28T17:37:35.304Z,100082.84
2023-04-28T17:39:07.754Z,100082.38
2023-04-28T17:40:39.913Z,100093.03
2023-04-28T17:42:12.100Z,100087.25
2023-04-28T17:43:44.309Z,100087.34
2023-04-28T17:45:16.505Z,100093.56
2023-04-28T17:46:48.860Z,100091.22
2023-04-28T17:48:21.428Z,100087.94
2023-04-28T17:49:53.649Z,100083.97
2023-04-28T17:51:26.024Z,100079.94
2023-04-28T17:52:58.467Z,100085.31
2023-04-28T17:54:32.437Z,100089.78
2023-04-28T17:56:04.661Z,100091.66
2023-04-28T17:57:37.112Z,100092.69
2023-04-28T17:59:09.340Z,100099.75
2023-04-28T18:00:41.449Z,100097.34
2023-04-28T18:02:13.975Z,100100.06